createdAt,value
2023-01-05T00:01:37.824Z,9.50
2023-01-05T00:04:05.622Z,9.50
2023-01-05T00:06:33.056Z,9.50
2023-01-05T00:09:00.444Z,9.50
2023-01-05T00:11:46.831Z,9.50
2023-01-05T00:14:37.227Z,9.40
2023-01-05T00:17:30.124Z,9.50
2023-01-05T00:20:15.519Z,9.40
2023-01-05T00:22:48.737Z,9.50
2023-01-05T00:25:18.274Z,9.40
2023-01-05T00:27:48.228Z,9.50
2023-01-05T00:30:18.190Z,9.50
2023-01-05T00:32:45.290Z,9.40
2023-01-05T00:35:14.168Z,9.50
2023-01-05T00:37:41.255Z,9.50
2023-01-05T00:40:10.793Z,9.50
2023-01-05T00:42:38.377Z,9.40
2023-01-05T00:45:07.241Z,9.50
2023-01-05T00:47:34.156Z,9.40
2023-01-05T00:50:16.339Z,9.40
2023-01-05T00:52:44.194Z,9.40
2023-01-05T00:55:11.580Z,9.40
2023-01-05T00:57:38.822Z,9.50
2023-01-05T01:00:07.358Z,9.40
2023-01-05T01:02:34.238Z,9.40
2023-01-05T01:05:01.110Z,9.50
2023-01-05T01:07:28.007Z,9.50
2023-01-05T01:09:54.781Z,9.50
2023-01-05T01:12:27.971Z,9.40
2023-01-05T01:14:54.747Z,9.50
2023-01-05T01:17:21.544Z,9.50
2023-01-05T01:19:48.503Z,9.50
2023-01-05T01:22:15.407Z,9.50
2023-01-05T01:24:42.424Z,9.50
2023-01-05T01:27:09.459Z,9.50
2023-01-05T01:29:45.416Z,9.40
2023-01-05T01:32:12.253Z,9.50
2023-01-05T01:34:39.931Z,9.40
2023-01-05T01:37:06.798Z,9.50
2023-01-05T01:39:33.891Z,9.50
2023-01-05T01:42:00.796Z,9.50
2023-01-05T01:45:09.472Z,9.50
2023-01-05T01:47:56.899Z,9.50
2023-01-05T01:50:47.712Z,9.50
2023-01-05T01:53:22.591Z,9.50
2023-01-05T01:55:50.864Z,9.50
2023-01-05T01:58:19.456Z,9.50
2023-01-05T02:00:49.186Z,9.60
2023-01-05T02:03:16.879Z,9.50
2023-01-05T02:05:43.689Z,9.50
2023-01-05T02:08:13.404Z,9.60
2023-01-05T02:11:02.563Z,9.60
2023-01-05T02:13:40.332Z,9.50
2023-01-05T02:16:40.915Z,9.50
2023-01-05T02:19:38.913Z,9.50
2023-01-05T02:22:27.689Z,9.50
2023-01-05T02:25:53.247Z,9.50
2023-01-05T02:28:57.755Z,9.50
2023-01-05T02:31:36.713Z,9.50
2023-01-05T02:34:32.226Z,9.50
2023-01-05T02:37:10.112Z,9.50
2023-01-05T02:39:41.886Z,9.50
2023-01-05T02:42:25.070Z,9.50
2023-01-05T02:45:12.318Z,9.50
2023-01-05T02:47:43.769Z,9.50
2023-01-05T02:50:50.148Z,9.50
2023-01-05T02:53:26.838Z,9.50
2023-01-05T02:56:08.652Z,9.50
2023-01-05T02:58:41.717Z,9.40
2023-01-05T03:01:36.700Z,9.40
2023-01-05T03:04:28.020Z,9.40
2023-01-05T03:07:23.497Z,9.50
2023-01-05T03:09:50.795Z,9.40
2023-01-05T03:12:51.924Z,9.50
2023-01-05T03:15:26.594Z,9.50
2023-01-05T03:18:07.108Z,9.40
2023-01-05T03:20:35.611Z,9.30
2023-01-05T03:23:26.528Z,9.30
2023-01-05T03:26:12.226Z,9.20
2023-01-05T03:29:07.370Z,9.30
2023-01-05T03:31:54.777Z,9.20
2023-01-05T03:35:05.991Z,9.20
2023-01-05T03:37:59.176Z,9.20
2023-01-05T03:40:31.067Z,9.10
2023-01-05T03:42:58.789Z,9.10
2023-01-05T03:45:47.057Z,9.10
2023-01-05T03:48:13.846Z,9.10
2023-01-05T03:50:47.870Z,9.10
2023-01-05T03:53:27.580Z,9.10
2023-01-05T03:55:54.451Z,9.10
2023-01-05T03:58:21.302Z,9.10
2023-01-05T04:00:48.082Z,9.10
2023-01-05T04:03:15.145Z,9.20
2023-01-05T04:05:42.074Z,9.10
2023-01-05T04:08:17.057Z,9.10
2023-01-05T04:11:00.948Z,9.10
2023-01-05T04:13:27.911Z,9.10
2023-01-05T04:15:54.726Z,9.20
2023-01-05T04:18:21.549Z,9.20
2023-01-05T04:20:48.396Z,9.20
2023-01-05T04:23:15.203Z,9.20
2023-01-05T04:25:42.117Z,9.20
2023-01-05T04:28:08.910Z,9.20
2023-01-05T04:30:35.752Z,9.30
2023-01-05T04:33:02.605Z,9.20
2023-01-05T04:35:29.417Z,9.30
2023-01-05T04:37:56.228Z,9.30
2023-01-05T04:40:23.027Z,9.30
2023-01-05T04:42:59.570Z,9.30
2023-01-05T04:45:27.136Z,9.30
2023-01-05T04:47:54.061Z,9.30
2023-01-05T04:50:21.220Z,9.30
2023-01-05T04:52:48.101Z,9.30
2023-01-05T04:55:14.968Z,9.30
2023-01-05T04:57:41.857Z,9.30
2023-01-05T05:00:11.479Z,9.30
2023-01-05T05:02:38.378Z,9.30
2023-01-05T05:05:05.679Z,9.30
2023-01-05T05:07:32.629Z,9.30
2023-01-05T05:09:59.784Z,9.30
2023-01-05T05:12:26.713Z,9.30
2023-01-05T05:14:53.503Z,9.30
2023-01-05T05:17:20.833Z,9.30
2023-01-05T05:19:47.774Z,9.20
2023-01-05T05:22:14.869Z,9.30
2023-01-05T05:24:41.935Z,9.30
2023-01-05T05:27:08.771Z,9.30
2023-01-05T05:29:35.580Z,9.30
2023-01-05T05:32:02.549Z,9.30
2023-01-05T05:34:29.463Z,9.30
2023-01-05T05:36:56.580Z,9.30
2023-01-05T05:39:23.435Z,9.30
2023-01-05T05:41:50.243Z,9.30
2023-01-05T05:44:17.313Z,9.30
2023-01-05T05:46:44.185Z,9.40
2023-01-05T05:49:11.010Z,9.40
2023-01-05T05:51:37.900Z,9.40
2023-01-05T05:54:05.069Z,9.40
2023-01-05T05:56:32.212Z,9.40
2023-01-05T05:59:01.540Z,9.40
2023-01-05T06:01:29.321Z,9.40
2023-01-05T06:03:56.347Z,9.40
2023-01-05T06:06:23.180Z,9.40
2023-01-05T06:08:50.957Z,9.40
2023-01-05T06:11:17.963Z,9.40
2023-01-05T06:13:44.943Z,9.40
2023-01-05T06:16:12.073Z,9.50
2023-01-05T06:18:38.921Z,9.50
2023-01-05T06:21:05.956Z,9.50
2023-01-05T06:23:32.791Z,9.50
2023-01-05T06:25:59.609Z,9.50
2023-01-05T06:28:26.456Z,9.50
2023-01-05T06:30:53.325Z,9.50
2023-01-05T06:33:20.187Z,9.50
2023-01-05T06:35:47.049Z,9.50
2023-01-05T06:38:16.066Z,9.50
2023-01-05T06:40:44.546Z,9.50
2023-01-05T06:43:12.284Z,9.50
2023-01-05T06:45:39.163Z,9.50
2023-01-05T06:48:06.423Z,9.50
2023-01-05T06:50:33.654Z,9.50
2023-01-05T06:53:00.547Z,9.50
2023-01-05T06:55:27.451Z,9.50
2023-01-05T06:58:00.308Z,9.50
2023-01-05T07:00:28.785Z,9.50
2023-01-05T07:02:55.786Z,9.50
2023-01-05T07:05:24.433Z,9.40
2023-01-05T07:07:51.518Z,9.40
2023-01-05T07:10:18.567Z,9.40
2023-01-05T07:12:45.418Z,9.40
2023-01-05T07:15:12.227Z,9.40
2023-01-05T07:17:39.037Z,9.40
2023-01-05T07:20:08.045Z,9.40
2023-01-05T07:22:34.911Z,9.40
2023-01-05T07:25:01.949Z,9.40
2023-01-05T07:27:28.762Z,9.40
2023-01-05T07:29:55.658Z,9.30
2023-01-05T07:32:22.468Z,9.30
2023-01-05T07:34:55.314Z,9.30
2023-01-05T07:37:24.737Z,9.30
2023-01-05T07:39:52.413Z,9.30
2023-01-05T07:42:19.401Z,9.30
2023-01-05T07:44:46.171Z,9.30
2023-01-05T07:47:12.991Z,9.30
2023-01-05T07:49:39.837Z,9.40
2023-01-05T07:52:07.939Z,9.30
2023-01-05T07:54:34.969Z,9.30
2023-01-05T07:57:01.855Z,9.30
2023-01-05T07:59:28.717Z,9.20
2023-01-05T08:01:55.694Z,9.30
2023-01-05T08:04:22.736Z,9.20
2023-01-05T08:06:49.659Z,9.20
2023-01-05T08:09:34.913Z,9.20
2023-01-05T08:12:01.768Z,9.30
2023-01-05T08:14:28.580Z,9.20
2023-01-05T08:16:55.452Z,9.20
2023-01-05T08:19:22.380Z,9.20
2023-01-05T08:21:49.222Z,9.20
2023-01-05T08:24:16.100Z,9.20
2023-01-05T08:26:43.090Z,9.20
2023-01-05T08:29:10.006Z,9.20
2023-01-05T08:31:39.624Z,9.30
2023-01-05T08:34:06.882Z,9.30
2023-01-05T08:36:33.788Z,9.30
2023-01-05T08:39:03.960Z,9.30
2023-01-05T08:41:35.796Z,9.30
2023-01-05T08:44:05.740Z,9.30
2023-01-05T08:46:35.695Z,9.30
2023-01-05T08:49:07.436Z,9.40
2023-01-05T08:51:34.633Z,9.40
2023-01-05T08:54:01.630Z,9.40
2023-01-05T08:56:33.105Z,9.40
2023-01-05T08:59:03.473Z,9.40
2023-01-05T09:01:31.381Z,9.40
2023-01-05T09:03:58.471Z,9.50
2023-01-05T09:06:25.532Z,9.40
2023-01-05T09:08:52.688Z,9.50
2023-01-05T09:11:22.026Z,9.50
2023-01-05T09:13:51.469Z,9.50
2023-01-05T09:16:42.390Z,9.50
2023-01-05T09:19:07.732Z,9.60
2023-01-05T09:21:34.971Z,9.50
2023-01-05T09:24:01.862Z,9.60
2023-01-05T09:26:28.715Z,9.60
2023-01-05T09:28:55.540Z,9.60
2023-01-05T09:31:23.145Z,9.60
2023-01-05T09:33:50.574Z,9.60
2023-01-05T09:36:19.000Z,9.70
2023-01-05T09:38:50.554Z,9.70
2023-01-05T09:41:26.136Z,9.70
2023-01-05T09:43:57.423Z,9.70
2023-01-05T09:46:29.606Z,9.70
2023-01-05T09:48:59.797Z,9.70
2023-01-05T09:51:27.835Z,9.80
2023-01-05T09:53:54.734Z,9.80
2023-01-05T09:57:07.497Z,9.80
2023-01-05T09:59:21.477Z,9.80
2023-01-05T10:01:50.506Z,9.80
2023-01-05T10:04:26.619Z,9.90
2023-01-05T10:07:08.634Z,9.90
2023-01-05T10:09:39.336Z,9.90
2023-01-05T10:12:27.919Z,9.90
2023-01-05T10:15:01.969Z,9.90
2023-01-05T10:20:16.241Z,10.00
2023-01-05T10:23:09.482Z,10.00
2023-01-05T10:25:52.930Z,10.00
2023-01-05T10:28:51.945Z,10.00
2023-01-05T10:31:34.803Z,10.10
2023-01-05T10:34:16.024Z,10.10
2023-01-05T10:37:09.035Z,10.10
2023-01-05T10:39:43.067Z,10.10
2023-01-05T10:42:41.054Z,10.10
2023-01-05T10:45:17.123Z,10.00
2023-01-05T10:47:46.173Z,10.00
2023-01-05T10:50:44.600Z,10.10
2023-01-05T10:53:14.914Z,10.10
2023-01-05T10:56:04.441Z,10.10
2023-01-05T10:58:39.674Z,10.10
2023-01-05T11:01:28.798Z,10.10
2023-01-05T11:06:50.507Z,10.10
2023-01-05T11:09:23.934Z,10.10
2023-01-05T11:11:55.091Z,10.10
2023-01-05T11:14:22.566Z,10.10
2023-01-05T11:16:54.947Z,10.00
2023-01-05T11:19:29.074Z,10.00
2023-01-05T11:22:01.578Z,10.00
2023-01-05T11:24:37.651Z,10.10
2023-01-05T11:27:24.523Z,10.10
2023-01-05T11:30:16.390Z,10.10
2023-01-05T11:32:44.439Z,10.10
2023-01-05T11:35:31.872Z,10.10
2023-01-05T11:38:01.882Z,10.20
2023-01-05T11:40:35.184Z,10.20
2023-01-05T11:43:11.236Z,10.30
2023-01-05T11:45:45.675Z,10.30
2023-01-05T11:48:17.854Z,10.40
2023-01-05T11:50:51.866Z,10.40
2023-01-05T11:53:33.911Z,10.40
2023-01-05T11:56:08.175Z,10.40
2023-01-05T11:58:45.953Z,10.40
2023-01-05T12:01:37.888Z,10.30
2023-01-05T12:04:23.006Z,10.30
2023-01-05T12:07:13.569Z,10.30
2023-01-05T12:09:53.133Z,10.20
2023-01-05T12:12:48.234Z,10.30
2023-01-05T12:15:51.586Z,10.30
2023-01-05T12:18:37.074Z,10.40
2023-01-05T12:21:24.327Z,10.40
2023-01-05T12:24:22.384Z,10.50
2023-01-05T12:26:55.315Z,10.50
2023-01-05T12:35:42.601Z,10.60
2023-01-05T12:38:27.774Z,10.80
2023-01-05T12:41:22.955Z,10.80
2023-01-05T12:43:59.991Z,10.90
2023-01-05T12:47:00.871Z,10.90
2023-01-05T12:49:33.056Z,10.90
2023-01-05T12:52:07.107Z,10.80
2023-01-05T12:54:48.045Z,10.70
2023-01-05T12:57:33.595Z,10.70
2023-01-05T13:00:07.104Z,10.60
2023-01-05T13:02:49.529Z,10.60
2023-01-05T13:05:46.359Z,10.60
2023-01-05T13:08:17.862Z,10.50
2023-01-05T13:11:00.158Z,10.40
2023-01-05T13:13:47.879Z,10.40
2023-01-05T13:16:22.417Z,10.40
2023-01-05T13:19:12.070Z,10.30
2023-01-05T13:21:42.985Z,10.30
2023-01-05T13:24:17.898Z,10.20
2023-01-05T13:26:44.786Z,10.20
2023-01-05T13:29:32.110Z,10.20
2023-01-05T13:32:35.931Z,10.20
2023-01-05T13:35:24.800Z,10.20
2023-01-05T13:38:19.604Z,10.20
2023-01-05T13:41:08.509Z,10.10
2023-01-05T13:43:43.963Z,10.10
2023-01-05T13:46:34.708Z,10.10
2023-01-05T13:49:27.897Z,10.10
2023-01-05T13:52:23.920Z,10.10
2023-01-05T13:55:02.693Z,10.10
2023-01-05T13:57:37.681Z,10.00
2023-01-05T14:00:12.449Z,10.00
2023-01-05T14:02:44.371Z,10.00
2023-01-05T14:05:24.681Z,10.00
2023-01-05T14:07:53.516Z,9.90
2023-01-05T14:10:27.742Z,9.90
2023-01-05T14:12:55.097Z,9.90
2023-01-05T14:15:41.608Z,9.90
2023-01-05T14:21:59.952Z,9.80
2023-01-05T14:24:36.814Z,9.80
2023-01-05T14:27:13.114Z,9.80
2023-01-05T14:29:46.217Z,9.70
2023-01-05T14:32:34.528Z,9.80
2023-01-05T14:35:11.822Z,9.70
2023-01-05T14:37:46.553Z,9.70
2023-01-05T14:40:34.137Z,9.80
2023-01-05T14:43:05.362Z,9.80
2023-01-05T14:45:36.603Z,9.80
2023-01-05T14:48:24.367Z,9.80
2023-01-05T14:51:21.451Z,9.80
2023-01-05T14:53:50.449Z,9.80
2023-01-05T14:56:19.003Z,9.80
2023-01-05T14:58:45.906Z,9.80
2023-01-05T15:01:18.679Z,9.80
2023-01-05T15:04:01.212Z,9.80
2023-01-05T15:06:51.910Z,9.70
2023-01-05T15:09:46.324Z,9.70
2023-01-05T15:12:31.843Z,9.70
2023-01-05T15:15:07.591Z,9.70
2023-01-05T15:17:56.365Z,9.70
2023-01-05T15:20:57.892Z,9.60
2023-01-05T15:23:56.669Z,9.60
2023-01-05T15:26:26.317Z,9.50
2023-01-05T15:29:02.396Z,9.50
2023-01-05T15:32:06.939Z,9.50
2023-01-05T15:34:39.181Z,9.50
2023-01-05T15:37:36.406Z,9.40
2023-01-05T15:40:07.723Z,9.40
2023-01-05T15:42:40.704Z,9.40
2023-01-05T15:45:30.355Z,9.40
2023-01-05T15:48:01.733Z,9.40
2023-01-05T15:50:46.195Z,9.40
2023-01-05T15:53:33.005Z,9.40
2023-01-05T15:56:01.432Z,9.40
2023-01-05T15:58:30.577Z,9.40
2023-01-05T16:01:11.476Z,9.40
2023-01-05T16:03:40.478Z,9.30
2023-01-05T16:06:18.134Z,9.30
2023-01-05T16:08:47.513Z,9.20
2023-01-05T16:11:35.709Z,9.10
2023-01-05T16:14:05.524Z,9.00
2023-01-05T16:16:54.091Z,9.00
2023-01-05T16:19:31.106Z,8.90
2023-01-05T16:22:15.462Z,8.90
2023-01-05T16:24:51.920Z,8.80
2023-01-05T16:27:19.174Z,8.80
2023-01-05T16:29:47.951Z,8.80
2023-01-05T16:32:27.462Z,8.80
2023-01-05T16:35:39.416Z,8.70
2023-01-05T16:38:31.983Z,8.60
2023-01-05T16:41:19.601Z,8.60
2023-01-05T16:47:06.150Z,8.50
2023-01-05T16:49:49.905Z,8.40
2023-01-05T16:52:33.204Z,8.40
2023-01-05T16:55:36.595Z,8.30
2023-01-05T16:58:27.257Z,8.30
2023-01-05T17:01:21.508Z,8.20
2023-01-05T17:03:52.182Z,8.10
2023-01-05T17:06:24.637Z,8.10
2023-01-05T17:09:02.284Z,8.00
2023-01-05T17:11:36.513Z,7.90
2023-01-05T17:14:04.364Z,7.90
2023-01-05T17:16:31.717Z,7.90
2023-01-05T17:19:01.901Z,8.00
2023-01-05T17:21:32.101Z,8.00
2023-01-05T17:24:00.481Z,8.10
2023-01-05T17:26:36.570Z,8.10
2023-01-05T17:29:22.482Z,8.10
2023-01-05T17:31:50.253Z,8.20
2023-01-05T17:34:29.765Z,8.20
2023-01-05T17:39:46.823Z,8.30
2023-01-05T17:45:04.363Z,8.30
2023-01-05T17:47:31.360Z,8.40
2023-01-05T17:49:58.477Z,8.40
2023-01-05T17:52:25.652Z,8.40
2023-01-05T17:54:54.102Z,8.50
2023-01-05T18:00:22.723Z,8.50
2023-01-05T18:02:58.453Z,8.60
2023-01-05T18:05:26.508Z,8.60
2023-01-05T18:07:53.380Z,8.60
2023-01-05T18:10:23.849Z,8.60
2023-01-05T18:12:52.154Z,8.60
2023-01-05T18:18:00.275Z,8.70
2023-01-05T18:20:29.881Z,8.70
2023-01-05T18:22:58.528Z,8.70
2023-01-05T18:25:29.960Z,8.70
2023-01-05T18:28:14.546Z,8.80
2023-01-05T18:33:19.179Z,8.80
2023-01-05T18:35:50.818Z,8.80
2023-01-05T18:38:21.449Z,8.90
2023-01-05T18:40:50.109Z,8.90
2023-01-05T18:43:25.777Z,9.00
2023-01-05T18:46:02.146Z,9.00
2023-01-05T18:48:41.062Z,9.00
2023-01-05T18:51:09.754Z,9.10
2023-01-05T18:53:38.595Z,9.10
2023-01-05T18:56:10.025Z,9.10
2023-01-05T18:58:38.234Z,9.10
2023-01-05T19:01:17.160Z,9.10
2023-01-05T19:03:52.779Z,9.10
2023-01-05T19:07:27.979Z,9.10
2023-01-05T19:12:50.835Z,9.10
2023-01-05T19:15:17.793Z,9.00
2023-01-05T19:17:48.174Z,9.10
2023-01-05T19:20:15.070Z,9.10
2023-01-05T19:22:42.259Z,9.10
2023-01-05T19:25:09.240Z,9.00
2023-01-05T19:27:36.211Z,9.10
2023-01-05T19:30:03.498Z,9.10
2023-01-05T19:32:39.568Z,9.00
2023-01-05T19:35:08.782Z,9.00
2023-01-05T19:37:42.365Z,9.00
2023-01-05T19:40:15.053Z,9.10
2023-01-05T19:42:41.975Z,9.10
2023-01-05T19:45:12.304Z,9.10
2023-01-05T19:51:22.380Z,9.10
2023-01-05T19:54:01.208Z,9.10
2023-01-05T19:56:49.545Z,9.10
2023-01-05T19:59:19.158Z,9.20
2023-01-05T20:01:46.345Z,9.10
2023-01-05T20:04:21.755Z,9.10
2023-01-05T20:06:48.687Z,9.10
2023-01-05T20:09:19.191Z,9.20
2023-01-05T20:12:13.983Z,9.20
2023-01-05T20:15:23.325Z,9.20
2023-01-05T20:17:50.349Z,9.20
2023-01-05T20:20:19.863Z,9.20
2023-01-05T20:22:47.867Z,9.20
2023-01-05T20:25:17.724Z,9.20
2023-01-05T20:27:46.164Z,9.20
2023-01-05T20:30:13.401Z,9.20
2023-01-05T20:32:40.472Z,9.20
2023-01-05T20:35:07.643Z,9.20
2023-01-05T20:37:34.489Z,9.20
2023-01-05T20:40:02.527Z,9.20
2023-01-05T20:42:30.688Z,9.30
2023-01-05T20:44:59.709Z,9.20
2023-01-05T20:47:27.250Z,9.20
2023-01-05T20:49:55.320Z,9.20
2023-01-05T20:52:22.228Z,9.20
2023-01-05T20:57:37.096Z,9.20
2023-01-05T21:00:04.675Z,9.30
2023-01-05T21:02:31.977Z,9.30
2023-01-05T21:04:58.838Z,9.30
2023-01-05T21:07:25.866Z,9.30
2023-01-05T21:09:53.732Z,9.30
2023-01-05T21:12:21.131Z,9.30
2023-01-05T21:14:47.973Z,9.30
2023-01-05T21:17:14.816Z,9.40
2023-01-05T21:19:41.661Z,9.30
2023-01-05T21:22:10.404Z,9.40
2023-01-05T21:24:37.553Z,9.40
2023-01-05T21:27:04.570Z,9.40
2023-01-05T21:29:31.540Z,9.40
2023-01-05T21:31:58.506Z,9.40
2023-01-05T21:34:26.309Z,9.40
2023-01-05T21:36:53.429Z,9.40
2023-01-05T21:39:22.941Z,9.40
2023-01-05T21:42:09.749Z,9.40
2023-01-05T21:44:41.759Z,9.50
2023-01-05T21:47:15.824Z,9.50
2023-01-05T21:49:47.449Z,9.50
2023-01-05T21:52:32.728Z,9.50
2023-01-05T21:55:31.527Z,9.60
2023-01-05T21:58:04.998Z,9.60
2023-01-05T22:00:31.848Z,9.60
2023-01-05T22:02:58.734Z,9.70
2023-01-05T22:05:25.749Z,9.70
2023-01-05T22:07:52.746Z,9.70
2023-01-05T22:10:19.944Z,9.70
2023-01-05T22:12:46.746Z,9.70
2023-01-05T22:15:13.631Z,9.70
2023-01-05T22:17:40.563Z,9.80
2023-01-05T22:20:08.267Z,9.80
2023-01-05T22:22:35.052Z,9.80
2023-01-05T22:25:01.886Z,9.80
2023-01-05T22:27:29.454Z,9.80
2023-01-05T22:29:56.346Z,9.80
2023-01-05T22:32:23.252Z,9.80
2023-01-05T22:34:50.304Z,9.80
2023-01-05T22:37:17.195Z,9.80
2023-01-05T22:39:44.175Z,9.90
2023-01-05T22:42:11.087Z,9.90
2023-01-05T22:44:37.877Z,9.90
2023-01-05T22:47:05.365Z,9.90
2023-01-05T22:49:32.932Z,9.90
2023-01-05T22:51:59.788Z,9.90
2023-01-05T22:54:26.616Z,9.90
2023-01-05T22:56:53.397Z,9.90
2023-01-05T22:59:20.250Z,9.90
2023-01-05T23:01:47.729Z,9.90
2023-01-05T23:04:16.389Z,9.90
2023-01-05T23:06:43.373Z,9.90
2023-01-05T23:09:14.618Z,9.90
2023-01-05T23:11:43.356Z,10.00
2023-01-05T23:14:12.256Z,9.90
2023-01-05T23:16:39.342Z,9.90
2023-01-05T23:19:08.000Z,9.90
2023-01-05T23:21:35.390Z,9.90
2023-01-05T23:24:02.446Z,9.90
2023-01-05T23:26:30.433Z,9.90
2023-01-05T23:28:57.471Z,9.90
2023-01-05T23:31:24.529Z,9.90
2023-01-05T23:33:51.764Z,9.90
2023-01-05T23:36:20.188Z,9.90
2023-01-05T23:38:47.853Z,9.90
2023-01-05T23:41:19.065Z,9.90
2023-01-05T23:43:46.334Z,9.90
2023-01-05T23:46:20.694Z,9.90
2023-01-05T23:48:48.132Z,9.90
2023-01-05T23:51:16.606Z,9.90
2023-01-05T23:53:45.781Z,10.00
2023-01-05T23:56:16.572Z,10.00
2023-01-05T23:58:43.811Z,10.00
